Bremgarten, Germany

12:56 PM CEST on July 26, 2016 (GMT +0200)
Fire Department | | Change Station

Elev 741 ft 47.92 °N, 7.70 °E | Updated 1 minute ago

Clear
Clear
81.3 °F
Feels Like 83 °F
N
1.5
Wind Variable Wind from East
Gusts 3.0 mph

Today
High -- | Low -- °F
--% Chance of Precip.
Yesterday
High -- | Low -- °F
Precip. -- in
Pressure 30.09 in
Visibility -9999.0 miles
Clouds
Heat Index 83 °F
Dew Point 64 °F
Humidity 56%
Rainfall 0.00 in
Snow Depth Not available.
5:58 AM 9:12 PM
Waning Gibbous, 56% visible
METAR EDTL 261050Z 24003KT CAVOK 27/16 Q1019
Pressure 30.09 in
Visibility -9999.0 miles
Clouds
Heat Index 83 °F
Dew Point 64 °F
Humidity 56%
Rainfall 0.00 in
Snow Depth Not available.
5:58 AM 9:12 PM
Waning Gibbous, 56% visible
METAR EDTL 261050Z 24003KT CAVOK 27/16 Q1019

10-Day Weather Forecast

×

Almanac

Astronomy

Jul. 26, 2016 Rise Set
Actual Time
Civil Twilight
Nautical Twilight
Astronomical Twilight
Moon
Length of Visible Light
Length of Day
Tomorrow will be .
, % of the Moon is Illuminated

Today's Extremes

Country Highs Country Lows

Community

WunderPhotos

Upload Photos

1,927,557 photos uploaded!

WunderBlog® & News

Nearby

Air Quality

  Air Quality AQ Index Pollutant
Not available.

Snow Depth

Station Depth Elevation

Earthquake Activity

City Distance Mag. Time & Date
Minimum magnitude displayed is 2.5.

Coastal Water Temperatures

Place Temperature

Stations

Nearby Weather Stations

Station Location Temp. Windchill Dew Point Humidity Wind Precip. Elev Updated Type